Terminal Aerodrome Forecast
Issued by NWS

Home | Current Version | Previous Version | Graphics & Text | Print | Product List | Glossary On
Versions: 1 2 3 4 5 6 7 8 9 10 11 12 13 14 15 16 17 18
538
FTUS43 KFGF 191735 AAA
TAFBJI
TAF AMD
KBJI 191735Z 1918/2018 21007KT P6SM VCSH BKN080
     FM192100 18008KT P6SM BKN080
     FM192200 16008KT P6SM BKN080
     FM200100 17006KT P6SM SCT090
     FM200700 25004KT P6SM FEW200=

USA.gov is the U.S. government's official web portal to all federal, state and local government web resources and services.